sensor_id;sensor_type;location;lat;lon;timestamp;temperature;humidity
46976;DHT22;32724;51.094;6.996;2022-08-01T00:01:39;19.90;99.90
46976;DHT22;32724;51.094;6.996;2022-08-01T00:04:04;19.80;99.90
46976;DHT22;32724;51.094;6.996;2022-08-01T00:06:30;19.80;99.90
46976;DHT22;32724;51.094;6.996;2022-08-01T00:08:56;19.70;99.90
46976;DHT22;32724;51.094;6.996;2022-08-01T00:11:21;19.60;99.90
46976;DHT22;32724;51.094;6.996;2022-08-01T00:13:47;19.60;99.90
46976;DHT22;32724;51.094;6.996;2022-08-01T00:16:12;19.60;99.90
46976;DHT22;32724;51.094;6.996;2022-08-01T00:18:38;19.60;99.90
46976;DHT22;32724;51.094;6.996;2022-08-01T00:21:03;19.60;99.90
46976;DHT22;32724;51.094;6.996;2022-08-01T00:23:29;19.60;99.90
46976;DHT22;32724;51.094;6.996;2022-08-01T00:25:55;19.60;99.90
46976;DHT22;32724;51.094;6.996;2022-08-01T00:28:21;19.60;99.90
46976;DHT22;32724;51.094;6.996;2022-08-01T00:30:46;19.60;99.90
46976;DHT22;32724;51.094;6.996;2022-08-01T00:33:12;19.60;99.90
46976;DHT22;32724;51.094;6.996;2022-08-01T00:35:37;19.60;99.90
46976;DHT22;32724;51.094;6.996;2022-08-01T00:38:03;19.60;99.90
46976;DHT22;32724;51.094;6.996;2022-08-01T00:40:28;19.60;99.90
46976;DHT22;32724;51.094;6.996;2022-08-01T00:42:54;19.60;99.90
46976;DHT22;32724;51.094;6.996;2022-08-01T00:45:19;19.60;99.90
46976;DHT22;32724;51.094;6.996;2022-08-01T00:47:45;19.60;99.90
46976;DHT22;32724;51.094;6.996;2022-08-01T00:50:10;19.60;99.90
46976;DHT22;32724;51.094;6.996;2022-08-01T00:52:36;19.60;99.90
46976;DHT22;32724;51.094;6.996;2022-08-01T00:55:01;19.70;99.90
46976;DHT22;32724;51.094;6.996;2022-08-01T00:57:27;19.70;99.90
46976;DHT22;32724;51.094;6.996;2022-08-01T00:59:53;19.60;99.90
46976;DHT22;32724;51.094;6.996;2022-08-01T01:02:18;19.60;99.90
46976;DHT22;32724;51.094;6.996;2022-08-01T01:04:44;19.60;99.90
46976;DHT22;32724;51.094;6.996;2022-08-01T01:07:21;19.70;99.90
46976;DHT22;32724;51.094;6.996;2022-08-01T01:14:53;19.70;99.90
46976;DHT22;32724;51.094;6.996;2022-08-01T01:17:21;19.70;99.90
46976;DHT22;32724;51.094;6.996;2022-08-01T01:19:51;19.70;99.90
46976;DHT22;32724;51.094;6.996;2022-08-01T01:27:21;19.70;99.90
46976;DHT22;32724;51.094;6.996;2022-08-01T01:29:50;19.70;99.90
46976;DHT22;32724;51.094;6.996;2022-08-01T01:32:26;19.70;99.90
46976;DHT22;32724;51.094;6.996;2022-08-01T01:34:54;19.80;99.90
46976;DHT22;32724;51.094;6.996;2022-08-01T01:37:22;19.70;99.90
46976;DHT22;32724;51.094;6.996;2022-08-01T01:39:49;19.80;99.90
46976;DHT22;32724;51.094;6.996;2022-08-01T01:42:16;19.80;99.90
46976;DHT22;32724;51.094;6.996;2022-08-01T01:44:42;19.70;99.90
46976;DHT22;32724;51.094;6.996;2022-08-01T01:47:08;19.50;99.90
46976;DHT22;32724;51.094;6.996;2022-08-01T01:49:34;19.30;99.90
46976;DHT22;32724;51.094;6.996;2022-08-01T01:52:00;19.20;99.90
46976;DHT22;32724;51.094;6.996;2022-08-01T01:54:31;19.20;99.90
46976;DHT22;32724;51.094;6.996;2022-08-01T01:56:58;18.90;99.90
46976;DHT22;32724;51.094;6.996;2022-08-01T01:59:25;18.90;99.90
46976;DHT22;32724;51.094;6.996;2022-08-01T02:01:52;18.80;99.90
46976;DHT22;32724;51.094;6.996;2022-08-01T02:04:20;18.90;99.90
46976;DHT22;32724;51.094;6.996;2022-08-01T02:06:46;18.90;99.90
46976;DHT22;32724;51.094;6.996;2022-08-01T02:09:19;19.10;99.90
46976;DHT22;32724;51.094;6.996;2022-08-01T02:11:46;19.30;99.90
46976;DHT22;32724;51.094;6.996;2022-08-01T02:14:15;19.30;99.90
46976;DHT22;32724;51.094;6.996;2022-08-01T02:16:42;19.40;99.90
46976;DHT22;32724;51.094;6.996;2022-08-01T02:19:09;19.50;99.90
46976;DHT22;32724;51.094;6.996;2022-08-01T02:21:49;19.50;99.90
46976;DHT22;32724;51.094;6.996;2022-08-01T02:24:18;19.50;99.90
46976;DHT22;32724;51.094;6.996;2022-08-01T02:26:46;19.60;99.90
46976;DHT22;32724;51.094;6.996;2022-08-01T02:29:14;19.60;99.90
46976;DHT22;32724;51.094;6.996;2022-08-01T02:31:41;19.60;99.90
46976;DHT22;32724;51.094;6.996;2022-08-01T02:34:10;19.60;99.90
46976;DHT22;32724;51.094;6.996;2022-08-01T02:36:38;19.60;99.90
46976;DHT22;32724;51.094;6.996;2022-08-01T02:39:06;19.60;99.90
46976;DHT22;32724;51.094;6.996;2022-08-01T02:41:33;19.60;99.90
46976;DHT22;32724;51.094;6.996;2022-08-01T02:43:59;19.60;99.90
46976;DHT22;32724;51.094;6.996;2022-08-01T02:46:29;19.70;99.90
46976;DHT22;32724;51.094;6.996;2022-08-01T02:48:56;19.70;99.90
46976;DHT22;32724;51.094;6.996;2022-08-01T02:51:23;19.60;99.90
46976;DHT22;32724;51.094;6.996;2022-08-01T02:53:50;19.70;99.90
46976;DHT22;32724;51.094;6.996;2022-08-01T02:56:17;19.70;99.90
46976;DHT22;32724;51.094;6.996;2022-08-01T02:58:42;19.60;99.90
46976;DHT22;32724;51.094;6.996;2022-08-01T03:01:09;19.70;99.90
46976;DHT22;32724;51.094;6.996;2022-08-01T03:03:36;19.70;99.90
46976;DHT22;32724;51.094;6.996;2022-08-01T03:06:01;19.70;99.90
46976;DHT22;32724;51.094;6.996;2022-08-01T03:08:28;19.70;99.90
46976;DHT22;32724;51.094;6.996;2022-08-01T03:10:54;19.70;99.90
46976;DHT22;32724;51.094;6.996;2022-08-01T03:13:20;19.70;99.90
46976;DHT22;32724;51.094;6.996;2022-08-01T03:15:46;19.70;99.90
46976;DHT22;32724;51.094;6.996;2022-08-01T03:18:13;19.70;99.90
46976;DHT22;32724;51.094;6.996;2022-08-01T03:20:39;19.70;99.90
46976;DHT22;32724;51.094;6.996;2022-08-01T03:23:05;19.70;99.90
46976;DHT22;32724;51.094;6.996;2022-08-01T03:25:31;19.70;99.90
46976;DHT22;32724;51.094;6.996;2022-08-01T03:27:59;19.70;99.90
46976;DHT22;32724;51.094;6.996;2022-08-01T03:30:26;19.70;99.90
46976;DHT22;32724;51.094;6.996;2022-08-01T03:32:52;19.70;99.90
46976;DHT22;32724;51.094;6.996;2022-08-01T03:35:18;19.70;99.90
46976;DHT22;32724;51.094;6.996;2022-08-01T03:37:45;19.70;99.90
46976;DHT22;32724;51.094;6.996;2022-08-01T03:40:13;19.70;99.90
46976;DHT22;32724;51.094;6.996;2022-08-01T03:42:47;19.70;99.90
46976;DHT22;32724;51.094;6.996;2022-08-01T03:45:23;19.70;99.90
46976;DHT22;32724;51.094;6.996;2022-08-01T03:47:52;19.70;99.90
46976;DHT22;32724;51.094;6.996;2022-08-01T03:50:20;19.70;99.90
46976;DHT22;32724;51.094;6.996;2022-08-01T03:52:47;19.70;99.90
46976;DHT22;32724;51.094;6.996;2022-08-01T03:55:14;19.70;99.90
46976;DHT22;32724;51.094;6.996;2022-08-01T03:57:40;19.70;99.90
46976;DHT22;32724;51.094;6.996;2022-08-01T04:00:06;19.70;99.90
46976;DHT22;32724;51.094;6.996;2022-08-01T04:02:33;19.70;99.90
46976;DHT22;32724;51.094;6.996;2022-08-01T04:04:59;19.70;99.90
46976;DHT22;32724;51.094;6.996;2022-08-01T04:07:26;19.70;99.90
46976;DHT22;32724;51.094;6.996;2022-08-01T04:09:52;19.70;99.90
46976;DHT22;32724;51.094;6.996;2022-08-01T04:12:18;19.70;99.90
46976;DHT22;32724;51.094;6.996;2022-08-01T04:14:43;19.60;99.90
46976;DHT22;32724;51.094;6.996;2022-08-01T04:17:09;19.70;99.90
46976;DHT22;32724;51.094;6.996;2022-08-01T04:19:34;19.70;99.90
46976;DHT22;32724;51.094;6.996;2022-08-01T04:22:00;19.60;99.90
46976;DHT22;32724;51.094;6.996;2022-08-01T04:24:25;19.70;99.90
46976;DHT22;32724;51.094;6.996;2022-08-01T04:26:54;19.70;99.90
46976;DHT22;32724;51.094;6.996;2022-08-01T04:29:19;19.70;99.90
46976;DHT22;32724;51.094;6.996;2022-08-01T04:31:46;19.70;99.90
46976;DHT22;32724;51.094;6.996;2022-08-01T04:34:14;19.70;99.90
46976;DHT22;32724;51.094;6.996;2022-08-01T04:36:41;19.70;99.90
46976;DHT22;32724;51.094;6.996;2022-08-01T04:39:09;19.70;99.90
46976;DHT22;32724;51.094;6.996;2022-08-01T04:41:36;19.70;99.90
46976;DHT22;32724;51.094;6.996;2022-08-01T04:44:01;19.80;99.90
46976;DHT22;32724;51.094;6.996;2022-08-01T04:46:28;19.80;99.90
46976;DHT22;32724;51.094;6.996;2022-08-01T04:48:54;19.80;99.90
46976;DHT22;32724;51.094;6.996;2022-08-01T04:51:20;19.80;99.90
46976;DHT22;32724;51.094;6.996;2022-08-01T04:53:47;19.80;99.90
46976;DHT22;32724;51.094;6.996;2022-08-01T04:56:13;19.80;99.90
46976;DHT22;32724;51.094;6.996;2022-08-01T04:58:39;19.80;99.90
46976;DHT22;32724;51.094;6.996;2022-08-01T05:01:06;19.80;99.90
46976;DHT22;32724;51.094;6.996;2022-08-01T05:03:31;19.80;99.90
46976;DHT22;32724;51.094;6.996;2022-08-01T05:05:57;19.80;99.90
46976;DHT22;32724;51.094;6.996;2022-08-01T05:08:22;19.80;99.90
46976;DHT22;32724;51.094;6.996;2022-08-01T05:10:48;19.90;99.90
46976;DHT22;32724;51.094;6.996;2022-08-01T05:13:13;19.90;99.90
46976;DHT22;32724;51.094;6.996;2022-08-01T05:15:39;20.00;99.90
46976;DHT22;32724;51.094;6.996;2022-08-01T05:18:04;20.00;99.90
46976;DHT22;32724;51.094;6.996;2022-08-01T05:20:30;20.00;99.90
46976;DHT22;32724;51.094;6.996;2022-08-01T05:22:56;20.00;99.90
46976;DHT22;32724;51.094;6.996;2022-08-01T05:25:22;20.10;99.90
46976;DHT22;32724;51.094;6.996;2022-08-01T05:27:48;20.10;99.90
46976;DHT22;32724;51.094;6.996;2022-08-01T05:30:14;20.10;99.90
46976;DHT22;32724;51.094;6.996;2022-08-01T05:32:40;20.10;99.90
46976;DHT22;32724;51.094;6.996;2022-08-01T05:35:06;20.10;99.90
46976;DHT22;32724;51.094;6.996;2022-08-01T05:37:32;20.10;99.90
46976;DHT22;32724;51.094;6.996;2022-08-01T05:39:59;20.10;99.90
46976;DHT22;32724;51.094;6.996;2022-08-01T05:42:24;20.10;99.90
46976;DHT22;32724;51.094;6.996;2022-08-01T05:44:50;20.20;99.90
46976;DHT22;32724;51.094;6.996;2022-08-01T05:47:16;20.20;99.90
46976;DHT22;32724;51.094;6.996;2022-08-01T05:49:42;20.20;99.90
46976;DHT22;32724;51.094;6.996;2022-08-01T05:52:07;20.20;99.90
46976;DHT22;32724;51.094;6.996;2022-08-01T05:54:33;20.30;99.90
46976;DHT22;32724;51.094;6.996;2022-08-01T05:56:58;20.30;99.90
46976;DHT22;32724;51.094;6.996;2022-08-01T05:59:30;20.30;99.90
46976;DHT22;32724;51.094;6.996;2022-08-01T06:01:56;20.40;99.90
46976;DHT22;32724;51.094;6.996;2022-08-01T06:04:21;20.50;99.90
46976;DHT22;32724;51.094;6.996;2022-08-01T06:06:46;20.70;99.90
46976;DHT22;32724;51.094;6.996;2022-08-01T06:09:12;20.80;99.90
46976;DHT22;32724;51.094;6.996;2022-08-01T06:11:37;21.00;99.90
46976;DHT22;32724;51.094;6.996;2022-08-01T06:14:03;21.10;99.90
46976;DHT22;32724;51.094;6.996;2022-08-01T06:16:28;21.20;99.90
46976;DHT22;32724;51.094;6.996;2022-08-01T06:18:54;21.20;99.90
46976;DHT22;32724;51.094;6.996;2022-08-01T06:21:19;21.30;99.90
46976;DHT22;32724;51.094;6.996;2022-08-01T06:23:45;21.30;99.90
46976;DHT22;32724;51.094;6.996;2022-08-01T06:26:10;21.10;99.90
46976;DHT22;32724;51.094;6.996;2022-08-01T06:28:36;21.10;99.90
46976;DHT22;32724;51.094;6.996;2022-08-01T06:31:02;21.20;99.90
46976;DHT22;32724;51.094;6.996;2022-08-01T06:33:27;21.30;99.90
46976;DHT22;32724;51.094;6.996;2022-08-01T06:35:53;21.30;99.90
46976;DHT22;32724;51.094;6.996;2022-08-01T06:38:19;21.20;99.90
46976;DHT22;32724;51.094;6.996;2022-08-01T06:40:44;21.20;99.90
46976;DHT22;32724;51.094;6.996;2022-08-01T06:43:10;21.30;99.90
46976;DHT22;32724;51.094;6.996;2022-08-01T06:45:37;21.30;99.90
46976;DHT22;32724;51.094;6.996;2022-08-01T06:48:03;21.50;99.90
46976;DHT22;32724;51.094;6.996;2022-08-01T06:50:28;21.60;99.90
46976;DHT22;32724;51.094;6.996;2022-08-01T06:52:54;22.40;99.90
46976;DHT22;32724;51.094;6.996;2022-08-01T06:55:19;23.00;99.90
46976;DHT22;32724;51.094;6.996;2022-08-01T06:57:45;23.40;99.90
46976;DHT22;32724;51.094;6.996;2022-08-01T07:00:11;23.30;99.90
46976;DHT22;32724;51.094;6.996;2022-08-01T07:02:38;23.30;99.90
46976;DHT22;32724;51.094;6.996;2022-08-01T07:05:03;23.10;99.90
46976;DHT22;32724;51.094;6.996;2022-08-01T07:07:30;22.90;99.90
46976;DHT22;32724;51.094;6.996;2022-08-01T07:09:56;22.60;99.90
46976;DHT22;32724;51.094;6.996;2022-08-01T07:12:21;22.60;99.90
46976;DHT22;32724;51.094;6.996;2022-08-01T07:14:47;22.40;99.90
46976;DHT22;32724;51.094;6.996;2022-08-01T07:17:12;22.40;99.90
46976;DHT22;32724;51.094;6.996;2022-08-01T07:19:38;22.50;99.90
46976;DHT22;32724;51.094;6.996;2022-08-01T07:22:03;22.40;99.90
46976;DHT22;32724;51.094;6.996;2022-08-01T07:24:29;22.40;99.90
46976;DHT22;32724;51.094;6.996;2022-08-01T07:26:54;22.20;99.90
46976;DHT22;32724;51.094;6.996;2022-08-01T07:29:21;22.00;99.90
46976;DHT22;32724;51.094;6.996;2022-08-01T07:31:46;22.20;99.90
46976;DHT22;32724;51.094;6.996;2022-08-01T07:34:12;22.70;99.90
46976;DHT22;32724;51.094;6.996;2022-08-01T07:36:37;23.20;99.90
46976;DHT22;32724;51.094;6.996;2022-08-01T07:39:03;23.60;99.90
46976;DHT22;32724;51.094;6.996;2022-08-01T07:41:28;23.80;99.90
46976;DHT22;32724;51.094;6.996;2022-08-01T07:43:54;23.80;99.90
46976;DHT22;32724;51.094;6.996;2022-08-01T07:46:19;23.70;99.90
46976;DHT22;32724;51.094;6.996;2022-08-01T07:48:44;23.60;99.90
46976;DHT22;32724;51.094;6.996;2022-08-01T07:51:10;23.40;99.90
46976;DHT22;32724;51.094;6.996;2022-08-01T07:53:36;23.30;99.90
46976;DHT22;32724;51.094;6.996;2022-08-01T07:56:02;23.20;99.90
46976;DHT22;32724;51.094;6.996;2022-08-01T07:58:30;23.00;99.90
46976;DHT22;32724;51.094;6.996;2022-08-01T08:00:55;23.10;99.90
46976;DHT22;32724;51.094;6.996;2022-08-01T08:03:21;23.30;99.90
46976;DHT22;32724;51.094;6.996;2022-08-01T08:05:46;23.60;99.90
46976;DHT22;32724;51.094;6.996;2022-08-01T08:08:12;24.00;99.90
46976;DHT22;32724;51.094;6.996;2022-08-01T08:10:39;24.00;99.90
46976;DHT22;32724;51.094;6.996;2022-08-01T08:13:04;24.20;99.90
46976;DHT22;32724;51.094;6.996;2022-08-01T08:15:30;24.40;99.90
46976;DHT22;32724;51.094;6.996;2022-08-01T08:17:55;24.40;99.90
46976;DHT22;32724;51.094;6.996;2022-08-01T08:20:21;24.20;99.90
46976;DHT22;32724;51.094;6.996;2022-08-01T08:22:50;24.20;99.90
46976;DHT22;32724;51.094;6.996;2022-08-01T08:25:16;24.60;99.90
46976;DHT22;32724;51.094;6.996;2022-08-01T08:27:41;24.60;99.90
46976;DHT22;32724;51.094;6.996;2022-08-01T08:30:07;24.50;99.90
46976;DHT22;32724;51.094;6.996;2022-08-01T08:32:32;24.10;99.90
46976;DHT22;32724;51.094;6.996;2022-08-01T08:34:58;24.00;99.90
46976;DHT22;32724;51.094;6.996;2022-08-01T08:37:23;24.20;99.90
46976;DHT22;32724;51.094;6.996;2022-08-01T08:39:49;24.20;99.90
46976;DHT22;32724;51.094;6.996;2022-08-01T08:42:14;24.20;99.90
46976;DHT22;32724;51.094;6.996;2022-08-01T08:44:40;24.50;99.90
46976;DHT22;32724;51.094;6.996;2022-08-01T08:47:06;24.90;99.90
46976;DHT22;32724;51.094;6.996;2022-08-01T08:49:33;24.60;99.90
46976;DHT22;32724;51.094;6.996;2022-08-01T08:51:59;24.30;99.90
46976;DHT22;32724;51.094;6.996;2022-08-01T08:54:25;24.10;99.90
46976;DHT22;32724;51.094;6.996;2022-08-01T08:56:52;24.30;99.90
46976;DHT22;32724;51.094;6.996;2022-08-01T08:59:18;24.90;99.90
46976;DHT22;32724;51.094;6.996;2022-08-01T09:01:43;25.50;99.90
46976;DHT22;32724;51.094;6.996;2022-08-01T09:04:09;26.20;99.90
46976;DHT22;32724;51.094;6.996;2022-08-01T09:06:35;26.30;99.90
46976;DHT22;32724;51.094;6.996;2022-08-01T09:09:01;25.80;99.90
46976;DHT22;32724;51.094;6.996;2022-08-01T09:11:27;25.30;99.90
46976;DHT22;32724;51.094;6.996;2022-08-01T09:16:40;24.90;99.90
46976;DHT22;32724;51.094;6.996;2022-08-01T09:19:06;24.80;99.90
46976;DHT22;32724;51.094;6.996;2022-08-01T09:21:32;24.90;99.90
46976;DHT22;32724;51.094;6.996;2022-08-01T09:23:58;24.70;99.90
46976;DHT22;32724;51.094;6.996;2022-08-01T09:26:37;24.60;99.90
46976;DHT22;32724;51.094;6.996;2022-08-01T09:29:04;24.70;99.90
46976;DHT22;32724;51.094;6.996;2022-08-01T09:31:38;24.70;99.90
46976;DHT22;32724;51.094;6.996;2022-08-01T09:34:04;24.80;99.90
46976;DHT22;32724;51.094;6.996;2022-08-01T09:36:49;24.90;99.90
46976;DHT22;32724;51.094;6.996;2022-08-01T09:39:19;25.10;99.90
46976;DHT22;32724;51.094;6.996;2022-08-01T09:41:45;25.40;99.90
46976;DHT22;32724;51.094;6.996;2022-08-01T09:44:10;25.30;99.90
46976;DHT22;32724;51.094;6.996;2022-08-01T09:46:36;25.30;99.90
46976;DHT22;32724;51.094;6.996;2022-08-01T09:49:13;25.10;99.90
46976;DHT22;32724;51.094;6.996;2022-08-01T09:51:39;24.90;99.90
46976;DHT22;32724;51.094;6.996;2022-08-01T09:54:05;24.90;99.90
46976;DHT22;32724;51.094;6.996;2022-08-01T09:56:36;25.20;99.90
46976;DHT22;32724;51.094;6.996;2022-08-01T09:59:02;25.20;99.90
46976;DHT22;32724;51.094;6.996;2022-08-01T10:01:28;25.20;99.90
46976;DHT22;32724;51.094;6.996;2022-08-01T10:04:03;25.40;99.90
46976;DHT22;32724;51.094;6.996;2022-08-01T10:06:29;25.50;99.90
46976;DHT22;32724;51.094;6.996;2022-08-01T10:08:54;25.30;99.90
46976;DHT22;32724;51.094;6.996;2022-08-01T10:11:20;25.50;99.90
46976;DHT22;32724;51.094;6.996;2022-08-01T10:13:46;25.50;99.90
46976;DHT22;32724;51.094;6.996;2022-08-01T10:16:12;25.60;99.90
46976;DHT22;32724;51.094;6.996;2022-08-01T10:18:38;25.60;99.90
46976;DHT22;32724;51.094;6.996;2022-08-01T10:21:06;25.60;99.90
46976;DHT22;32724;51.094;6.996;2022-08-01T10:23:35;25.60;99.90
46976;DHT22;32724;51.094;6.996;2022-08-01T10:26:01;25.60;99.90
46976;DHT22;32724;51.094;6.996;2022-08-01T10:28:29;25.60;99.90
46976;DHT22;32724;51.094;6.996;2022-08-01T10:30:55;25.60;99.90
46976;DHT22;32724;51.094;6.996;2022-08-01T10:33:22;25.70;99.90
46976;DHT22;32724;51.094;6.996;2022-08-01T10:35:48;25.80;99.90
46976;DHT22;32724;51.094;6.996;2022-08-01T10:38:13;26.00;99.90
46976;DHT22;32724;51.094;6.996;2022-08-01T10:40:39;26.40;99.90
46976;DHT22;32724;51.094;6.996;2022-08-01T10:43:05;26.40;99.90
46976;DHT22;32724;51.094;6.996;2022-08-01T10:45:31;26.50;99.90
46976;DHT22;32724;51.094;6.996;2022-08-01T10:48:02;26.40;99.90
46976;DHT22;32724;51.094;6.996;2022-08-01T10:50:38;26.50;99.90
46976;DHT22;32724;51.094;6.996;2022-08-01T10:55:40;26.90;99.90
46976;DHT22;32724;51.094;6.996;2022-08-01T10:58:09;27.10;99.90
46976;DHT22;32724;51.094;6.996;2022-08-01T11:00:35;27.10;99.90
46976;DHT22;32724;51.094;6.996;2022-08-01T11:03:01;27.30;99.90
46976;DHT22;32724;51.094;6.996;2022-08-01T11:05:30;27.50;99.90
46976;DHT22;32724;51.094;6.996;2022-08-01T11:07:56;27.30;99.90
46976;DHT22;32724;51.094;6.996;2022-08-01T11:10:39;27.00;99.90
46976;DHT22;32724;51.094;6.996;2022-08-01T11:13:05;27.00;99.90
46976;DHT22;32724;51.094;6.996;2022-08-01T11:15:33;26.90;99.90
46976;DHT22;32724;51.094;6.996;2022-08-01T11:17:59;26.70;99.90
46976;DHT22;32724;51.094;6.996;2022-08-01T11:25:22;26.10;99.90
46976;DHT22;32724;51.094;6.996;2022-08-01T11:27:48;26.10;99.90
46976;DHT22;32724;51.094;6.996;2022-08-01T11:32:46;26.30;99.90
46976;DHT22;32724;51.094;6.996;2022-08-01T11:35:11;26.60;99.90
46976;DHT22;32724;51.094;6.996;2022-08-01T11:37:37;26.80;99.90
46976;DHT22;32724;51.094;6.996;2022-08-01T11:42:40;26.50;99.90
46976;DHT22;32724;51.094;6.996;2022-08-01T11:45:06;26.10;99.90
46976;DHT22;32724;51.094;6.996;2022-08-01T11:47:53;25.90;99.90
46976;DHT22;32724;51.094;6.996;2022-08-01T11:50:31;25.90;99.90
46976;DHT22;32724;51.094;6.996;2022-08-01T11:55:26;26.40;99.90
46976;DHT22;32724;51.094;6.996;2022-08-01T11:57:58;26.50;99.90
46976;DHT22;32724;51.094;6.996;2022-08-01T12:00:24;26.30;99.90
46976;DHT22;32724;51.094;6.996;2022-08-01T12:02:57;25.80;99.90
46976;DHT22;32724;51.094;6.996;2022-08-01T12:05:22;26.00;99.90
46976;DHT22;32724;51.094;6.996;2022-08-01T12:07:52;26.40;99.90
46976;DHT22;32724;51.094;6.996;2022-08-01T12:10:19;26.80;99.90
46976;DHT22;32724;51.094;6.996;2022-08-01T12:12:49;26.90;99.90
46976;DHT22;32724;51.094;6.996;2022-08-01T12:15:14;27.10;99.90
46976;DHT22;32724;51.094;6.996;2022-08-01T12:17:41;27.20;99.90
46976;DHT22;32724;51.094;6.996;2022-08-01T12:20:08;27.30;99.90
46976;DHT22;32724;51.094;6.996;2022-08-01T12:22:34;27.00;99.90
46976;DHT22;32724;51.094;6.996;2022-08-01T12:25:10;26.50;99.90
46976;DHT22;32724;51.094;6.996;2022-08-01T12:27:36;26.40;99.90
46976;DHT22;32724;51.094;6.996;2022-08-01T12:30:04;26.60;99.90
46976;DHT22;32724;51.094;6.996;2022-08-01T12:32:31;26.80;99.90
46976;DHT22;32724;51.094;6.996;2022-08-01T12:35:01;27.20;99.90
46976;DHT22;32724;51.094;6.996;2022-08-01T12:37:27;27.10;99.90
46976;DHT22;32724;51.094;6.996;2022-08-01T12:39:53;26.80;99.90
46976;DHT22;32724;51.094;6.996;2022-08-01T12:42:18;26.60;99.90
46976;DHT22;32724;51.094;6.996;2022-08-01T12:44:45;26.40;99.90
46976;DHT22;32724;51.094;6.996;2022-08-01T12:47:12;26.20;99.90
46976;DHT22;32724;51.094;6.996;2022-08-01T12:49:38;26.30;99.90
46976;DHT22;32724;51.094;6.996;2022-08-01T12:52:04;26.60;99.90
46976;DHT22;32724;51.094;6.996;2022-08-01T12:54:29;26.70;99.90
46976;DHT22;32724;51.094;6.996;2022-08-01T12:56:55;26.80;99.90
46976;DHT22;32724;51.094;6.996;2022-08-01T12:59:27;26.90;99.90
46976;DHT22;32724;51.094;6.996;2022-08-01T13:01:55;27.00;99.90
46976;DHT22;32724;51.094;6.996;2022-08-01T13:04:22;27.20;99.90
46976;DHT22;32724;51.094;6.996;2022-08-01T13:06:53;27.20;99.90
46976;DHT22;32724;51.094;6.996;2022-08-01T13:09:19;27.30;99.90
46976;DHT22;32724;51.094;6.996;2022-08-01T13:11:44;27.40;99.90
46976;DHT22;32724;51.094;6.996;2022-08-01T13:14:25;27.20;99.90
46976;DHT22;32724;51.094;6.996;2022-08-01T13:16:51;27.00;99.90
46976;DHT22;32724;51.094;6.996;2022-08-01T13:19:16;26.70;99.90
46976;DHT22;32724;51.094;6.996;2022-08-01T13:21:55;26.70;99.90
46976;DHT22;32724;51.094;6.996;2022-08-01T13:24:27;26.50;99.90
46976;DHT22;32724;51.094;6.996;2022-08-01T13:26:57;26.30;99.90
46976;DHT22;32724;51.094;6.996;2022-08-01T13:32:20;26.40;99.90
46976;DHT22;32724;51.094;6.996;2022-08-01T13:34:44;26.80;99.90
46976;DHT22;32724;51.094;6.996;2022-08-01T13:37:10;27.30;99.90
46976;DHT22;32724;51.094;6.996;2022-08-01T13:39:35;27.30;99.90
46976;DHT22;32724;51.094;6.996;2022-08-01T13:42:08;27.40;99.90
46976;DHT22;32724;51.094;6.996;2022-08-01T13:44:34;27.50;99.90
46976;DHT22;32724;51.094;6.996;2022-08-01T13:46:59;27.60;99.90
46976;DHT22;32724;51.094;6.996;2022-08-01T13:49:25;27.60;99.90
46976;DHT22;32724;51.094;6.996;2022-08-01T13:51:50;27.60;99.90
46976;DHT22;32724;51.094;6.996;2022-08-01T13:54:16;27.50;99.90
46976;DHT22;32724;51.094;6.996;2022-08-01T13:56:42;27.60;99.90
46976;DHT22;32724;51.094;6.996;2022-08-01T13:59:07;27.70;99.90
46976;DHT22;32724;51.094;6.996;2022-08-01T14:01:33;27.80;99.90
46976;DHT22;32724;51.094;6.996;2022-08-01T14:03:59;27.80;99.90
46976;DHT22;32724;51.094;6.996;2022-08-01T14:06:24;27.50;99.90
46976;DHT22;32724;51.094;6.996;2022-08-01T14:08:50;27.50;99.90
46976;DHT22;32724;51.094;6.996;2022-08-01T14:11:16;27.50;99.90
46976;DHT22;32724;51.094;6.996;2022-08-01T14:13:41;27.30;99.90
46976;DHT22;32724;51.094;6.996;2022-08-01T14:16:07;27.20;99.90
46976;DHT22;32724;51.094;6.996;2022-08-01T14:18:33;27.20;99.90
46976;DHT22;32724;51.094;6.996;2022-08-01T14:20:58;27.10;99.90
46976;DHT22;32724;51.094;6.996;2022-08-01T14:23:24;26.90;99.90
46976;DHT22;32724;51.094;6.996;2022-08-01T14:25:50;27.00;99.90
46976;DHT22;32724;51.094;6.996;2022-08-01T14:28:16;27.10;99.90
46976;DHT22;32724;51.094;6.996;2022-08-01T14:30:41;27.20;99.90
46976;DHT22;32724;51.094;6.996;2022-08-01T14:33:08;27.20;99.90
46976;DHT22;32724;51.094;6.996;2022-08-01T14:35:33;27.20;99.90
46976;DHT22;32724;51.094;6.996;2022-08-01T14:37:59;27.00;99.90
46976;DHT22;32724;51.094;6.996;2022-08-01T14:40:24;26.90;99.90
46976;DHT22;32724;51.094;6.996;2022-08-01T14:42:50;26.80;99.90
46976;DHT22;32724;51.094;6.996;2022-08-01T14:45:15;26.80;99.90
46976;DHT22;32724;51.094;6.996;2022-08-01T14:47:41;27.10;99.90
46976;DHT22;32724;51.094;6.996;2022-08-01T14:50:08;26.90;99.90
46976;DHT22;32724;51.094;6.996;2022-08-01T14:52:34;26.70;99.90
46976;DHT22;32724;51.094;6.996;2022-08-01T14:55:00;26.60;99.90
46976;DHT22;32724;51.094;6.996;2022-08-01T14:57:25;26.50;99.90
46976;DHT22;32724;51.094;6.996;2022-08-01T14:59:51;26.30;99.90
46976;DHT22;32724;51.094;6.996;2022-08-01T15:02:16;26.30;99.90
46976;DHT22;32724;51.094;6.996;2022-08-01T15:04:42;26.20;99.90
46976;DHT22;32724;51.094;6.996;2022-08-01T15:07:08;26.30;99.90
46976;DHT22;32724;51.094;6.996;2022-08-01T15:09:33;26.40;99.90
46976;DHT22;32724;51.094;6.996;2022-08-01T15:11:59;26.20;99.90
46976;DHT22;32724;51.094;6.996;2022-08-01T15:14:24;26.10;99.90
46976;DHT22;32724;51.094;6.996;2022-08-01T15:17:08;26.00;99.90
46976;DHT22;32724;51.094;6.996;2022-08-01T15:19:34;26.00;99.90
46976;DHT22;32724;51.094;6.996;2022-08-01T15:21:59;26.10;99.90
46976;DHT22;32724;51.094;6.996;2022-08-01T15:24:25;26.20;99.90
46976;DHT22;32724;51.094;6.996;2022-08-01T15:26:50;26.10;99.90
46976;DHT22;32724;51.094;6.996;2022-08-01T15:29:16;26.00;99.90
46976;DHT22;32724;51.094;6.996;2022-08-01T15:31:41;26.00;99.90
46976;DHT22;32724;51.094;6.996;2022-08-01T15:34:06;26.20;99.90
46976;DHT22;32724;51.094;6.996;2022-08-01T15:36:33;26.40;99.90
46976;DHT22;32724;51.094;6.996;2022-08-01T15:38:58;26.20;99.90
46976;DHT22;32724;51.094;6.996;2022-08-01T15:41:24;26.20;99.90
46976;DHT22;32724;51.094;6.996;2022-08-01T15:43:49;26.20;99.90
46976;DHT22;32724;51.094;6.996;2022-08-01T15:46:15;26.20;99.90
46976;DHT22;32724;51.094;6.996;2022-08-01T15:48:40;26.00;99.90
46976;DHT22;32724;51.094;6.996;2022-08-01T15:51:06;25.90;99.90
46976;DHT22;32724;51.094;6.996;2022-08-01T15:53:31;25.90;99.90
46976;DHT22;32724;51.094;6.996;2022-08-01T15:55:57;25.90;99.90
46976;DHT22;32724;51.094;6.996;2022-08-01T15:58:22;25.90;99.90